KSUA/SUA METAR and TAF weather

Enter ICAO airport designator
Station Type Date Time Source
KSUA METAR 2019/06/27 03:55 UTC NOAA

KSUA 270355Z AUTO 00000KT 10SM CLR 27/23 A3012 RMK AO2


Station Type Date Time Source
KSUA Decoded METAR 2019/06/27 03:55 UTC NOAA

Stuart, Witham Field Airport, FL, United States (KSUA) 27-10-54N 080-13-16W
Jun 26, 2019 - 11:55 PM EDT / 2019.06.27 0355 UTC
Wind: Calm:0
Visibility: 10 mile(s):0
Sky conditions: clear
Temperature: 80 F (27 C)
Dew Point: 73 F (23 C)
Relative Humidity: 78%
Pressure (altimeter): 30.12 in. Hg (1019 hPa)
ob: KSUA 270355Z AUTO 00000KT 10SM CLR 27/23 A3012 RMK AO2
cycle: 4

Station Type Date Time Source
KSUA TAF 2019/06/26 18:45 UTC NOAA

TAF KSUA 261742Z 2618/2718 07010KT P6SM SCT040
FM270100 VRB03KT P6SM SCT250
FM271500 06006KT P6SM SCT030
FM271700 08010KT P6SM VCTS SCT040CB

Example: see airport list